Millard, Missouri
Current Conditions -  °F | °C
As of 2:18 PM on Friday 19 Dec 2014 (Local Time) from KIRK Reporting Station
Haze Haze  
Wind Chill: 26°   Ceiling: 4700
Heat Index: 32°   Visibility: 4mi
Dew Point: 30°   Wind: 7mph
Humidity: 92%   Direction: 120°ESE
Pressure: 30.25"   Gusts: NA
Location:  40.149°N, 92.6667°W
Report Text: KIRK 192018Z AUTO 12006KT 4SM BR SCT010 OVC047 00/M01 A3025 RMK AO2 T00001011
Loading
Personal Weather Stations






























Interactive Weather Map New forecast layout! Learn more

10-Day Weather Forecast

Advertisements
Track Severe Weather on mobile